sensor_id;sensor_type;location;lat;lon;timestamp;temperature;humidity
33717;DHT22;20046;50.746;7.072;2023-07-16T00:01:02;20.80;99.90
33717;DHT22;20046;50.746;7.072;2023-07-16T00:03:28;20.80;99.90
33717;DHT22;20046;50.746;7.072;2023-07-16T00:05:53;20.70;99.90
33717;DHT22;20046;50.746;7.072;2023-07-16T00:08:19;20.70;99.90
33717;DHT22;20046;50.746;7.072;2023-07-16T00:10:44;20.60;99.90
33717;DHT22;20046;50.746;7.072;2023-07-16T00:13:10;20.60;99.90
33717;DHT22;20046;50.746;7.072;2023-07-16T00:15:36;20.50;99.90
33717;DHT22;20046;50.746;7.072;2023-07-16T00:18:01;20.50;99.90
33717;DHT22;20046;50.746;7.072;2023-07-16T00:20:27;20.40;99.90
33717;DHT22;20046;50.746;7.072;2023-07-16T00:22:53;20.40;99.90
33717;DHT22;20046;50.746;7.072;2023-07-16T00:25:19;20.40;99.90
33717;DHT22;20046;50.746;7.072;2023-07-16T00:27:44;20.40;99.90
33717;DHT22;20046;50.746;7.072;2023-07-16T00:30:10;20.30;99.90
33717;DHT22;20046;50.746;7.072;2023-07-16T00:32:36;20.20;99.90
33717;DHT22;20046;50.746;7.072;2023-07-16T00:35:01;20.20;99.90
33717;DHT22;20046;50.746;7.072;2023-07-16T00:37:27;20.20;99.90
33717;DHT22;20046;50.746;7.072;2023-07-16T00:39:53;20.10;99.90
33717;DHT22;20046;50.746;7.072;2023-07-16T00:42:18;20.10;99.90
33717;DHT22;20046;50.746;7.072;2023-07-16T00:44:44;20.10;99.90
33717;DHT22;20046;50.746;7.072;2023-07-16T00:47:10;20.00;99.90
33717;DHT22;20046;50.746;7.072;2023-07-16T00:49:37;20.00;99.90
33717;DHT22;20046;50.746;7.072;2023-07-16T00:52:04;20.00;99.90
33717;DHT22;20046;50.746;7.072;2023-07-16T00:54:31;20.00;99.90
33717;DHT22;20046;50.746;7.072;2023-07-16T00:56:56;19.90;99.90
33717;DHT22;20046;50.746;7.072;2023-07-16T00:59:22;19.90;99.90
33717;DHT22;20046;50.746;7.072;2023-07-16T01:01:48;19.90;99.90
33717;DHT22;20046;50.746;7.072;2023-07-16T01:04:14;19.80;99.90
33717;DHT22;20046;50.746;7.072;2023-07-16T01:06:53;19.80;99.90
33717;DHT22;20046;50.746;7.072;2023-07-16T01:09:20;19.80;99.90
33717;DHT22;20046;50.746;7.072;2023-07-16T01:11:47;19.70;99.90
33717;DHT22;20046;50.746;7.072;2023-07-16T01:14:14;19.70;99.90
33717;DHT22;20046;50.746;7.072;2023-07-16T01:16:41;19.60;99.90
33717;DHT22;20046;50.746;7.072;2023-07-16T01:19:08;19.60;99.90
33717;DHT22;20046;50.746;7.072;2023-07-16T01:21:42;19.60;99.90
33717;DHT22;20046;50.746;7.072;2023-07-16T01:24:36;19.60;99.90
33717;DHT22;20046;50.746;7.072;2023-07-16T01:27:17;19.50;99.90
33717;DHT22;20046;50.746;7.072;2023-07-16T01:29:49;19.50;99.90
33717;DHT22;20046;50.746;7.072;2023-07-16T01:32:17;19.50;99.90
33717;DHT22;20046;50.746;7.072;2023-07-16T01:34:43;19.50;99.90
33717;DHT22;20046;50.746;7.072;2023-07-16T01:37:09;19.50;99.90
33717;DHT22;20046;50.746;7.072;2023-07-16T01:39:35;19.50;99.90
33717;DHT22;20046;50.746;7.072;2023-07-16T01:42:02;19.40;99.90
33717;DHT22;20046;50.746;7.072;2023-07-16T01:44:28;19.40;99.90
33717;DHT22;20046;50.746;7.072;2023-07-16T01:49:32;19.30;99.90
33717;DHT22;20046;50.746;7.072;2023-07-16T01:51:59;19.30;99.90
33717;DHT22;20046;50.746;7.072;2023-07-16T01:54:24;19.30;99.90
33717;DHT22;20046;50.746;7.072;2023-07-16T01:56:50;19.30;99.90
33717;DHT22;20046;50.746;7.072;2023-07-16T01:59:15;19.20;99.90
33717;DHT22;20046;50.746;7.072;2023-07-16T02:01:41;19.20;99.90
33717;DHT22;20046;50.746;7.072;2023-07-16T02:04:06;19.20;99.90
33717;DHT22;20046;50.746;7.072;2023-07-16T02:06:32;19.20;99.90
33717;DHT22;20046;50.746;7.072;2023-07-16T02:08:57;19.10;99.90
33717;DHT22;20046;50.746;7.072;2023-07-16T02:11:23;19.10;99.90
33717;DHT22;20046;50.746;7.072;2023-07-16T02:13:48;19.00;99.90
33717;DHT22;20046;50.746;7.072;2023-07-16T02:16:14;19.00;99.90
33717;DHT22;20046;50.746;7.072;2023-07-16T02:18:40;19.00;99.90
33717;DHT22;20046;50.746;7.072;2023-07-16T02:21:05;18.90;99.90
33717;DHT22;20046;50.746;7.072;2023-07-16T02:23:31;18.90;99.90
33717;DHT22;20046;50.746;7.072;2023-07-16T02:25:56;18.90;99.90
33717;DHT22;20046;50.746;7.072;2023-07-16T02:28:22;18.90;99.90
33717;DHT22;20046;50.746;7.072;2023-07-16T02:30:49;18.80;99.90
33717;DHT22;20046;50.746;7.072;2023-07-16T02:33:15;18.80;99.90
33717;DHT22;20046;50.746;7.072;2023-07-16T02:35:49;18.80;99.90
33717;DHT22;20046;50.746;7.072;2023-07-16T02:38:15;18.80;99.90
33717;DHT22;20046;50.746;7.072;2023-07-16T02:40:45;18.70;99.90
33717;DHT22;20046;50.746;7.072;2023-07-16T02:43:12;18.70;99.90
33717;DHT22;20046;50.746;7.072;2023-07-16T02:45:37;18.60;99.90
33717;DHT22;20046;50.746;7.072;2023-07-16T02:48:05;18.60;99.90
33717;DHT22;20046;50.746;7.072;2023-07-16T02:50:34;18.60;99.90
33717;DHT22;20046;50.746;7.072;2023-07-16T02:52:59;18.60;99.90
33717;DHT22;20046;50.746;7.072;2023-07-16T02:55:25;18.60;99.90
33717;DHT22;20046;50.746;7.072;2023-07-16T02:57:50;18.60;99.90
33717;DHT22;20046;50.746;7.072;2023-07-16T03:00:16;18.60;99.90
33717;DHT22;20046;50.746;7.072;2023-07-16T03:02:42;18.50;99.90
33717;DHT22;20046;50.746;7.072;2023-07-16T03:05:07;18.50;99.90
33717;DHT22;20046;50.746;7.072;2023-07-16T03:07:33;18.50;99.90
33717;DHT22;20046;50.746;7.072;2023-07-16T03:09:59;18.50;99.90
33717;DHT22;20046;50.746;7.072;2023-07-16T03:12:25;18.40;99.90
33717;DHT22;20046;50.746;7.072;2023-07-16T03:14:50;18.40;99.90
33717;DHT22;20046;50.746;7.072;2023-07-16T03:17:20;18.40;99.90
33717;DHT22;20046;50.746;7.072;2023-07-16T03:19:46;18.30;99.90
33717;DHT22;20046;50.746;7.072;2023-07-16T03:22:11;18.30;99.90
33717;DHT22;20046;50.746;7.072;2023-07-16T03:24:37;18.30;99.90
33717;DHT22;20046;50.746;7.072;2023-07-16T03:27:03;18.30;99.90
33717;DHT22;20046;50.746;7.072;2023-07-16T03:29:28;18.30;99.90
33717;DHT22;20046;50.746;7.072;2023-07-16T03:31:54;18.30;99.90
33717;DHT22;20046;50.746;7.072;2023-07-16T03:34:19;18.20;99.90
33717;DHT22;20046;50.746;7.072;2023-07-16T03:36:45;18.20;99.90
33717;DHT22;20046;50.746;7.072;2023-07-16T03:39:11;18.20;99.90
33717;DHT22;20046;50.746;7.072;2023-07-16T03:41:37;18.20;99.90
33717;DHT22;20046;50.746;7.072;2023-07-16T03:44:02;18.20;99.90
33717;DHT22;20046;50.746;7.072;2023-07-16T03:46:28;18.10;99.90
33717;DHT22;20046;50.746;7.072;2023-07-16T03:48:53;18.10;99.90
33717;DHT22;20046;50.746;7.072;2023-07-16T03:51:19;18.10;99.90
33717;DHT22;20046;50.746;7.072;2023-07-16T03:53:45;18.00;99.90
33717;DHT22;20046;50.746;7.072;2023-07-16T03:56:10;18.00;99.90
33717;DHT22;20046;50.746;7.072;2023-07-16T03:58:36;18.00;99.90
33717;DHT22;20046;50.746;7.072;2023-07-16T04:01:01;17.90;99.90
33717;DHT22;20046;50.746;7.072;2023-07-16T04:03:27;17.90;99.90
33717;DHT22;20046;50.746;7.072;2023-07-16T04:06:04;18.00;99.90
33717;DHT22;20046;50.746;7.072;2023-07-16T04:08:30;17.90;99.90
33717;DHT22;20046;50.746;7.072;2023-07-16T04:10:55;17.90;99.90
33717;DHT22;20046;50.746;7.072;2023-07-16T04:13:21;18.00;99.90
33717;DHT22;20046;50.746;7.072;2023-07-16T04:15:46;17.90;99.90
33717;DHT22;20046;50.746;7.072;2023-07-16T04:18:12;17.90;99.90
33717;DHT22;20046;50.746;7.072;2023-07-16T04:20:37;17.90;99.90
33717;DHT22;20046;50.746;7.072;2023-07-16T04:23:03;17.90;99.90
33717;DHT22;20046;50.746;7.072;2023-07-16T04:25:29;18.00;99.90
33717;DHT22;20046;50.746;7.072;2023-07-16T04:27:55;18.00;99.90
33717;DHT22;20046;50.746;7.072;2023-07-16T04:30:21;18.10;99.90
33717;DHT22;20046;50.746;7.072;2023-07-16T04:32:46;18.10;99.90
33717;DHT22;20046;50.746;7.072;2023-07-16T04:35:12;18.10;99.90
33717;DHT22;20046;50.746;7.072;2023-07-16T04:37:37;18.20;99.90
33717;DHT22;20046;50.746;7.072;2023-07-16T04:40:03;18.20;99.90
33717;DHT22;20046;50.746;7.072;2023-07-16T04:42:30;18.30;99.90
33717;DHT22;20046;50.746;7.072;2023-07-16T04:44:55;18.30;99.90
33717;DHT22;20046;50.746;7.072;2023-07-16T04:47:21;18.30;99.90
33717;DHT22;20046;50.746;7.072;2023-07-16T04:49:46;18.30;99.90
33717;DHT22;20046;50.746;7.072;2023-07-16T04:52:12;18.40;99.90
33717;DHT22;20046;50.746;7.072;2023-07-16T04:54:38;18.40;99.90
33717;DHT22;20046;50.746;7.072;2023-07-16T04:57:06;18.40;99.90
33717;DHT22;20046;50.746;7.072;2023-07-16T04:59:32;18.50;99.90
33717;DHT22;20046;50.746;7.072;2023-07-16T05:01:58;18.50;99.90
33717;DHT22;20046;50.746;7.072;2023-07-16T05:04:23;18.50;99.90
33717;DHT22;20046;50.746;7.072;2023-07-16T05:06:49;18.60;99.90
33717;DHT22;20046;50.746;7.072;2023-07-16T05:09:14;18.70;99.90
33717;DHT22;20046;50.746;7.072;2023-07-16T05:11:40;18.70;99.90
33717;DHT22;20046;50.746;7.072;2023-07-16T05:14:06;18.80;99.90
33717;DHT22;20046;50.746;7.072;2023-07-16T05:16:31;18.90;99.90
33717;DHT22;20046;50.746;7.072;2023-07-16T05:18:57;19.00;99.90
33717;DHT22;20046;50.746;7.072;2023-07-16T05:21:22;19.10;99.90
33717;DHT22;20046;50.746;7.072;2023-07-16T05:23:48;19.10;99.90
33717;DHT22;20046;50.746;7.072;2023-07-16T05:26:14;19.20;99.90
33717;DHT22;20046;50.746;7.072;2023-07-16T05:28:39;19.40;99.90
33717;DHT22;20046;50.746;7.072;2023-07-16T05:31:05;19.50;99.90
33717;DHT22;20046;50.746;7.072;2023-07-16T05:33:30;19.70;99.90
33717;DHT22;20046;50.746;7.072;2023-07-16T05:35:56;19.70;99.90
33717;DHT22;20046;50.746;7.072;2023-07-16T05:38:22;19.80;99.90
33717;DHT22;20046;50.746;7.072;2023-07-16T05:40:48;19.80;99.90
33717;DHT22;20046;50.746;7.072;2023-07-16T05:43:13;19.90;99.90
33717;DHT22;20046;50.746;7.072;2023-07-16T05:45:40;20.00;99.90
33717;DHT22;20046;50.746;7.072;2023-07-16T05:48:06;20.10;99.90
33717;DHT22;20046;50.746;7.072;2023-07-16T05:50:31;20.20;99.90
33717;DHT22;20046;50.746;7.072;2023-07-16T05:52:57;20.20;99.90
33717;DHT22;20046;50.746;7.072;2023-07-16T05:55:23;20.30;99.90
33717;DHT22;20046;50.746;7.072;2023-07-16T05:57:48;20.30;99.90
33717;DHT22;20046;50.746;7.072;2023-07-16T06:00:14;20.40;99.90
33717;DHT22;20046;50.746;7.072;2023-07-16T06:02:40;20.50;99.90
33717;DHT22;20046;50.746;7.072;2023-07-16T06:05:06;20.60;99.90
33717;DHT22;20046;50.746;7.072;2023-07-16T06:07:31;20.70;99.90
33717;DHT22;20046;50.746;7.072;2023-07-16T06:09:58;20.80;99.90
33717;DHT22;20046;50.746;7.072;2023-07-16T06:12:24;20.90;99.90
33717;DHT22;20046;50.746;7.072;2023-07-16T06:14:49;21.10;99.90
33717;DHT22;20046;50.746;7.072;2023-07-16T06:17:15;21.20;99.90
33717;DHT22;20046;50.746;7.072;2023-07-16T06:19:41;21.20;99.90
33717;DHT22;20046;50.746;7.072;2023-07-16T06:22:06;21.30;99.90
33717;DHT22;20046;50.746;7.072;2023-07-16T06:24:34;21.20;99.90
33717;DHT22;20046;50.746;7.072;2023-07-16T06:27:00;21.00;99.90
33717;DHT22;20046;50.746;7.072;2023-07-16T06:29:25;20.70;99.90
33717;DHT22;20046;50.746;7.072;2023-07-16T06:31:55;20.70;99.90
33717;DHT22;20046;50.746;7.072;2023-07-16T06:34:22;20.80;99.90
33717;DHT22;20046;50.746;7.072;2023-07-16T06:36:48;20.70;99.90
33717;DHT22;20046;50.746;7.072;2023-07-16T06:39:13;20.70;99.90
33717;DHT22;20046;50.746;7.072;2023-07-16T06:41:39;20.80;99.90
33717;DHT22;20046;50.746;7.072;2023-07-16T06:44:04;21.00;99.90
33717;DHT22;20046;50.746;7.072;2023-07-16T06:46:30;21.00;99.50
33717;DHT22;20046;50.746;7.072;2023-07-16T06:48:55;21.00;99.40
33717;DHT22;20046;50.746;7.072;2023-07-16T06:51:21;21.10;99.30
33717;DHT22;20046;50.746;7.072;2023-07-16T06:53:47;21.20;98.70
33717;DHT22;20046;50.746;7.072;2023-07-16T06:56:13;21.20;98.60
33717;DHT22;20046;50.746;7.072;2023-07-16T06:58:38;21.40;98.30
33717;DHT22;20046;50.746;7.072;2023-07-16T07:01:04;21.50;98.00
33717;DHT22;20046;50.746;7.072;2023-07-16T07:03:29;21.80;98.10
33717;DHT22;20046;50.746;7.072;2023-07-16T07:05:55;21.90;97.80
33717;DHT22;20046;50.746;7.072;2023-07-16T07:08:20;22.10;97.40
33717;DHT22;20046;50.746;7.072;2023-07-16T07:10:48;22.20;97.20
33717;DHT22;20046;50.746;7.072;2023-07-16T07:13:14;22.50;96.70
33717;DHT22;20046;50.746;7.072;2023-07-16T07:15:41;22.60;95.70
33717;DHT22;20046;50.746;7.072;2023-07-16T07:18:06;22.60;95.30
33717;DHT22;20046;50.746;7.072;2023-07-16T07:20:32;22.70;94.90
33717;DHT22;20046;50.746;7.072;2023-07-16T07:22:58;22.80;95.00
33717;DHT22;20046;50.746;7.072;2023-07-16T07:25:27;23.00;95.30
33717;DHT22;20046;50.746;7.072;2023-07-16T07:27:53;23.20;94.30
33717;DHT22;20046;50.746;7.072;2023-07-16T07:30:18;23.60;94.60
33717;DHT22;20046;50.746;7.072;2023-07-16T07:32:44;23.90;94.40
33717;DHT22;20046;50.746;7.072;2023-07-16T07:35:10;24.30;93.80
33717;DHT22;20046;50.746;7.072;2023-07-16T07:37:36;24.50;92.60
33717;DHT22;20046;50.746;7.072;2023-07-16T07:40:02;24.70;91.90
33717;DHT22;20046;50.746;7.072;2023-07-16T07:42:29;24.80;91.80
33717;DHT22;20046;50.746;7.072;2023-07-16T07:44:54;24.70;91.20
33717;DHT22;20046;50.746;7.072;2023-07-16T07:47:20;24.80;91.10
33717;DHT22;20046;50.746;7.072;2023-07-16T07:49:46;24.80;90.80
33717;DHT22;20046;50.746;7.072;2023-07-16T07:52:11;24.80;90.20
33717;DHT22;20046;50.746;7.072;2023-07-16T07:54:37;24.80;90.20
33717;DHT22;20046;50.746;7.072;2023-07-16T07:57:04;24.80;90.00
33717;DHT22;20046;50.746;7.072;2023-07-16T07:59:30;25.00;89.80
33717;DHT22;20046;50.746;7.072;2023-07-16T08:01:57;25.20;89.10
33717;DHT22;20046;50.746;7.072;2023-07-16T08:04:24;25.20;88.70
33717;DHT22;20046;50.746;7.072;2023-07-16T08:06:50;25.20;88.30
33717;DHT22;20046;50.746;7.072;2023-07-16T08:09:16;25.20;88.80
33717;DHT22;20046;50.746;7.072;2023-07-16T08:11:41;25.10;88.20
33717;DHT22;20046;50.746;7.072;2023-07-16T08:14:07;24.80;87.00
33717;DHT22;20046;50.746;7.072;2023-07-16T08:16:32;24.30;86.60
33717;DHT22;20046;50.746;7.072;2023-07-16T08:18:58;24.00;87.00
33717;DHT22;20046;50.746;7.072;2023-07-16T08:21:24;23.90;86.70
33717;DHT22;20046;50.746;7.072;2023-07-16T08:23:49;23.90;87.60
33717;DHT22;20046;50.746;7.072;2023-07-16T08:26:16;24.00;87.70
33717;DHT22;20046;50.746;7.072;2023-07-16T08:28:42;24.40;87.40
33717;DHT22;20046;50.746;7.072;2023-07-16T08:31:07;24.60;87.50
33717;DHT22;20046;50.746;7.072;2023-07-16T08:33:33;24.90;85.80
33717;DHT22;20046;50.746;7.072;2023-07-16T08:35:58;25.40;84.50
33717;DHT22;20046;50.746;7.072;2023-07-16T08:38:24;25.70;83.20
33717;DHT22;20046;50.746;7.072;2023-07-16T08:40:50;25.70;82.20
33717;DHT22;20046;50.746;7.072;2023-07-16T08:43:16;25.20;82.50
33717;DHT22;20046;50.746;7.072;2023-07-16T08:45:41;25.30;83.10
33717;DHT22;20046;50.746;7.072;2023-07-16T08:48:11;25.90;82.40
33717;DHT22;20046;50.746;7.072;2023-07-16T08:50:37;26.50;80.20
33717;DHT22;20046;50.746;7.072;2023-07-16T08:53:07;27.00;80.10
33717;DHT22;20046;50.746;7.072;2023-07-16T08:55:33;27.60;78.70
33717;DHT22;20046;50.746;7.072;2023-07-16T08:58:01;27.60;77.30
33717;DHT22;20046;50.746;7.072;2023-07-16T09:00:27;27.60;77.60
33717;DHT22;20046;50.746;7.072;2023-07-16T09:02:53;27.70;76.60
33717;DHT22;20046;50.746;7.072;2023-07-16T09:05:23;28.00;76.40
33717;DHT22;20046;50.746;7.072;2023-07-16T09:07:49;28.20;75.20
33717;DHT22;20046;50.746;7.072;2023-07-16T09:10:15;28.10;74.30
33717;DHT22;20046;50.746;7.072;2023-07-16T09:12:45;28.00;74.90
33717;DHT22;20046;50.746;7.072;2023-07-16T09:15:16;27.90;75.60
33717;DHT22;20046;50.746;7.072;2023-07-16T09:17:41;28.10;75.40
33717;DHT22;20046;50.746;7.072;2023-07-16T09:20:07;28.40;74.00
33717;DHT22;20046;50.746;7.072;2023-07-16T09:22:34;28.90;73.80
33717;DHT22;20046;50.746;7.072;2023-07-16T09:25:01;29.40;72.90
33717;DHT22;20046;50.746;7.072;2023-07-16T09:27:30;29.90;72.00
33717;DHT22;20046;50.746;7.072;2023-07-16T09:29:57;29.50;71.30
33717;DHT22;20046;50.746;7.072;2023-07-16T09:32:38;29.20;70.90
33717;DHT22;20046;50.746;7.072;2023-07-16T09:35:11;28.90;71.80
33717;DHT22;20046;50.746;7.072;2023-07-16T09:37:38;28.70;70.90
33717;DHT22;20046;50.746;7.072;2023-07-16T09:40:08;28.60;72.10
33717;DHT22;20046;50.746;7.072;2023-07-16T09:42:42;28.30;70.50
33717;DHT22;20046;50.746;7.072;2023-07-16T09:45:12;28.20;71.80
33717;DHT22;20046;50.746;7.072;2023-07-16T09:47:38;28.50;72.20
33717;DHT22;20046;50.746;7.072;2023-07-16T09:50:04;28.80;70.40
33717;DHT22;20046;50.746;7.072;2023-07-16T09:52:31;28.50;69.40
33717;DHT22;20046;50.746;7.072;2023-07-16T09:55:01;28.40;69.40
33717;DHT22;20046;50.746;7.072;2023-07-16T09:57:28;28.50;69.70
33717;DHT22;20046;50.746;7.072;2023-07-16T09:59:56;28.80;71.10
33717;DHT22;20046;50.746;7.072;2023-07-16T10:02:24;29.00;69.50
33717;DHT22;20046;50.746;7.072;2023-07-16T10:04:49;29.10;70.10
33717;DHT22;20046;50.746;7.072;2023-07-16T10:07:20;29.40;69.60
33717;DHT22;20046;50.746;7.072;2023-07-16T10:09:56;29.10;67.50
33717;DHT22;20046;50.746;7.072;2023-07-16T10:12:26;28.80;69.00
33717;DHT22;20046;50.746;7.072;2023-07-16T10:14:56;28.90;68.60
33717;DHT22;20046;50.746;7.072;2023-07-16T10:17:27;29.10;67.80
33717;DHT22;20046;50.746;7.072;2023-07-16T10:20:16;29.30;67.40
33717;DHT22;20046;50.746;7.072;2023-07-16T10:22:46;29.60;67.20
33717;DHT22;20046;50.746;7.072;2023-07-16T10:27:44;30.80;64.70
33717;DHT22;20046;50.746;7.072;2023-07-16T10:30:11;30.70;65.30
33717;DHT22;20046;50.746;7.072;2023-07-16T10:32:37;31.10;65.50
33717;DHT22;20046;50.746;7.072;2023-07-16T10:35:05;31.50;63.20
33717;DHT22;20046;50.746;7.072;2023-07-16T10:37:30;31.50;63.40
33717;DHT22;20046;50.746;7.072;2023-07-16T10:39:58;31.80;63.30
33717;DHT22;20046;50.746;7.072;2023-07-16T10:42:24;31.90;61.70
33717;DHT22;20046;50.746;7.072;2023-07-16T10:44:52;31.90;61.40
33717;DHT22;20046;50.746;7.072;2023-07-16T10:47:22;32.10;61.20
33717;DHT22;20046;50.746;7.072;2023-07-16T10:49:49;32.40;59.90
33717;DHT22;20046;50.746;7.072;2023-07-16T10:52:17;31.80;60.10
33717;DHT22;20046;50.746;7.072;2023-07-16T10:54:43;30.90;60.80
33717;DHT22;20046;50.746;7.072;2023-07-16T10:57:10;30.70;60.80
33717;DHT22;20046;50.746;7.072;2023-07-16T10:59:38;30.10;61.30
33717;DHT22;20046;50.746;7.072;2023-07-16T11:02:05;30.20;61.60
33717;DHT22;20046;50.746;7.072;2023-07-16T11:04:34;30.00;61.70
33717;DHT22;20046;50.746;7.072;2023-07-16T11:07:07;30.70;61.20
33717;DHT22;20046;50.746;7.072;2023-07-16T11:09:34;31.60;61.00
33717;DHT22;20046;50.746;7.072;2023-07-16T11:12:10;32.60;60.60
33717;DHT22;20046;50.746;7.072;2023-07-16T11:14:36;33.50;57.00
33717;DHT22;20046;50.746;7.072;2023-07-16T11:17:08;33.70;56.40
33717;DHT22;20046;50.746;7.072;2023-07-16T11:19:35;33.80;56.10
33717;DHT22;20046;50.746;7.072;2023-07-16T11:22:02;32.90;56.50
33717;DHT22;20046;50.746;7.072;2023-07-16T11:24:28;31.70;57.80
33717;DHT22;20046;50.746;7.072;2023-07-16T11:26:55;31.60;57.70
33717;DHT22;20046;50.746;7.072;2023-07-16T11:29:23;31.20;58.90
33717;DHT22;20046;50.746;7.072;2023-07-16T11:31:50;30.30;59.10
33717;DHT22;20046;50.746;7.072;2023-07-16T11:34:16;29.90;61.50
33717;DHT22;20046;50.746;7.072;2023-07-16T11:36:42;30.80;59.90
33717;DHT22;20046;50.746;7.072;2023-07-16T11:39:11;31.40;59.90
33717;DHT22;20046;50.746;7.072;2023-07-16T11:41:37;30.80;58.70
33717;DHT22;20046;50.746;7.072;2023-07-16T11:44:03;30.90;58.80
33717;DHT22;20046;50.746;7.072;2023-07-16T11:46:32;30.10;58.80
33717;DHT22;20046;50.746;7.072;2023-07-16T11:48:59;29.50;60.30
33717;DHT22;20046;50.746;7.072;2023-07-16T11:51:25;29.30;60.40
33717;DHT22;20046;50.746;7.072;2023-07-16T11:53:50;29.90;60.60
33717;DHT22;20046;50.746;7.072;2023-07-16T11:56:16;30.70;59.60
33717;DHT22;20046;50.746;7.072;2023-07-16T11:58:42;30.40;59.40
33717;DHT22;20046;50.746;7.072;2023-07-16T12:01:07;29.70;59.20
33717;DHT22;20046;50.746;7.072;2023-07-16T12:03:34;29.40;60.90
33717;DHT22;20046;50.746;7.072;2023-07-16T12:05:59;29.60;59.90
33717;DHT22;20046;50.746;7.072;2023-07-16T12:08:25;30.10;59.30
33717;DHT22;20046;50.746;7.072;2023-07-16T12:10:51;29.70;60.80
33717;DHT22;20046;50.746;7.072;2023-07-16T12:13:16;30.00;60.10
33717;DHT22;20046;50.746;7.072;2023-07-16T12:15:42;30.70;60.70
33717;DHT22;20046;50.746;7.072;2023-07-16T12:18:08;30.50;58.90
33717;DHT22;20046;50.746;7.072;2023-07-16T12:20:36;30.20;59.10
33717;DHT22;20046;50.746;7.072;2023-07-16T12:23:02;29.30;59.60
33717;DHT22;20046;50.746;7.072;2023-07-16T12:25:28;29.20;60.40
33717;DHT22;20046;50.746;7.072;2023-07-16T12:27:54;28.90;60.60
33717;DHT22;20046;50.746;7.072;2023-07-16T12:30:20;30.40;58.60
33717;DHT22;20046;50.746;7.072;2023-07-16T12:32:45;30.00;60.00
33717;DHT22;20046;50.746;7.072;2023-07-16T12:35:11;30.70;60.30
33717;DHT22;20046;50.746;7.072;2023-07-16T12:37:37;30.80;59.00
33717;DHT22;20046;50.746;7.072;2023-07-16T12:40:02;30.60;57.90
33717;DHT22;20046;50.746;7.072;2023-07-16T12:42:28;29.70;58.80
33717;DHT22;20046;50.746;7.072;2023-07-16T12:44:54;28.80;60.40
33717;DHT22;20046;50.746;7.072;2023-07-16T12:47:20;29.50;61.10
33717;DHT22;20046;50.746;7.072;2023-07-16T12:49:45;30.10;59.70
33717;DHT22;20046;50.746;7.072;2023-07-16T12:52:11;30.10;59.70
33717;DHT22;20046;50.746;7.072;2023-07-16T12:54:37;29.90;59.90
33717;DHT22;20046;50.746;7.072;2023-07-16T12:57:03;32.20;58.20
33717;DHT22;20046;50.746;7.072;2023-07-16T12:59:28;33.00;55.80
33717;DHT22;20046;50.746;7.072;2023-07-16T13:01:54;31.90;56.20
33717;DHT22;20046;50.746;7.072;2023-07-16T13:04:19;31.20;57.40
33717;DHT22;20046;50.746;7.072;2023-07-16T13:06:45;32.20;57.60
33717;DHT22;20046;50.746;7.072;2023-07-16T13:09:13;32.60;56.40
33717;DHT22;20046;50.746;7.072;2023-07-16T13:11:40;34.60;53.80
33717;DHT22;20046;50.746;7.072;2023-07-16T13:14:06;33.90;54.20
33717;DHT22;20046;50.746;7.072;2023-07-16T13:16:31;32.70;53.30
33717;DHT22;20046;50.746;7.072;2023-07-16T13:18:57;32.60;54.50
33717;DHT22;20046;50.746;7.072;2023-07-16T13:21:22;34.60;53.10
33717;DHT22;20046;50.746;7.072;2023-07-16T13:23:48;34.30;54.50
33717;DHT22;20046;50.746;7.072;2023-07-16T13:26:13;32.80;53.60
33717;DHT22;20046;50.746;7.072;2023-07-16T13:28:39;31.40;54.30
33717;DHT22;20046;50.746;7.072;2023-07-16T13:31:06;30.70;55.90
33717;DHT22;20046;50.746;7.072;2023-07-16T13:33:31;29.70;55.30
33717;DHT22;20046;50.746;7.072;2023-07-16T13:35:57;28.90;56.60
33717;DHT22;20046;50.746;7.072;2023-07-16T13:38:25;28.60;57.60
33717;DHT22;20046;50.746;7.072;2023-07-16T13:40:51;28.30;58.10
33717;DHT22;20046;50.746;7.072;2023-07-16T13:43:16;28.20;58.40
33717;DHT22;20046;50.746;7.072;2023-07-16T13:45:42;28.30;59.00
33717;DHT22;20046;50.746;7.072;2023-07-16T13:48:07;28.40;58.60
33717;DHT22;20046;50.746;7.072;2023-07-16T13:50:33;28.40;58.90
33717;DHT22;20046;50.746;7.072;2023-07-16T13:52:58;28.60;58.70
33717;DHT22;20046;50.746;7.072;2023-07-16T13:55:27;28.40;58.30
33717;DHT22;20046;50.746;7.072;2023-07-16T13:57:53;28.40;58.10
33717;DHT22;20046;50.746;7.072;2023-07-16T14:00:21;28.40;58.20
33717;DHT22;20046;50.746;7.072;2023-07-16T14:02:46;28.20;58.50
33717;DHT22;20046;50.746;7.072;2023-07-16T14:05:12;28.00;59.50
33717;DHT22;20046;50.746;7.072;2023-07-16T14:07:38;28.00;60.10
33717;DHT22;20046;50.746;7.072;2023-07-16T14:10:03;28.10;60.10
33717;DHT22;20046;50.746;7.072;2023-07-16T14:12:29;28.10;59.80
33717;DHT22;20046;50.746;7.072;2023-07-16T14:14:55;28.60;60.30
33717;DHT22;20046;50.746;7.072;2023-07-16T14:17:20;29.00;60.00
33717;DHT22;20046;50.746;7.072;2023-07-16T14:19:46;29.10;59.00
33717;DHT22;20046;50.746;7.072;2023-07-16T14:22:12;28.80;59.30
33717;DHT22;20046;50.746;7.072;2023-07-16T14:24:39;28.50;58.50
33717;DHT22;20046;50.746;7.072;2023-07-16T14:27:06;28.60;58.70
33717;DHT22;20046;50.746;7.072;2023-07-16T14:29:32;28.50;58.80
33717;DHT22;20046;50.746;7.072;2023-07-16T14:31:58;28.70;59.20
33717;DHT22;20046;50.746;7.072;2023-07-16T14:34:25;28.80;58.20
33717;DHT22;20046;50.746;7.072;2023-07-16T14:36:52;28.90;58.30
33717;DHT22;20046;50.746;7.072;2023-07-16T14:39:17;29.20;58.60
33717;DHT22;20046;50.746;7.072;2023-07-16T14:41:43;29.30;58.40
33717;DHT22;20046;50.746;7.072;2023-07-16T14:44:08;29.60;58.00
33717;DHT22;20046;50.746;7.072;2023-07-16T14:46:34;29.40;57.60
33717;DHT22;20046;50.746;7.072;2023-07-16T14:49:00;29.40;58.20
33717;DHT22;20046;50.746;7.072;2023-07-16T14:51:26;29.30;59.30
33717;DHT22;20046;50.746;7.072;2023-07-16T14:53:52;29.10;58.60
33717;DHT22;20046;50.746;7.072;2023-07-16T14:56:18;29.10;59.30
33717;DHT22;20046;50.746;7.072;2023-07-16T14:58:44;29.30;59.50
33717;DHT22;20046;50.746;7.072;2023-07-16T15:01:10;29.20;58.30
33717;DHT22;20046;50.746;7.072;2023-07-16T15:03:37;28.80;58.10
33717;DHT22;20046;50.746;7.072;2023-07-16T15:06:03;28.50;59.40
33717;DHT22;20046;50.746;7.072;2023-07-16T15:08:29;28.30;59.90
33717;DHT22;20046;50.746;7.072;2023-07-16T15:10:55;28.40;59.00
33717;DHT22;20046;50.746;7.072;2023-07-16T15:13:22;28.20;59.30
33717;DHT22;20046;50.746;7.072;2023-07-16T15:15:51;27.90;59.20
33717;DHT22;20046;50.746;7.072;2023-07-16T15:18:17;27.70;59.90
33717;DHT22;20046;50.746;7.072;2023-07-16T15:20:43;27.70;60.50
33717;DHT22;20046;50.746;7.072;2023-07-16T15:23:08;27.70;60.80
33717;DHT22;20046;50.746;7.072;2023-07-16T15:25:34;27.60;60.30
33717;DHT22;20046;50.746;7.072;2023-07-16T15:27:59;27.50;60.30
33717;DHT22;20046;50.746;7.072;2023-07-16T15:30:25;27.60;60.60